Time;durP1;ratioP1;P1;durP2;ratioP2;P2;SDS_P1;SDS_P2;PMS_P1;PMS_P2;Temp;Humidity;BMP_temperature;BMP_pressure;BME280_temperature;BME280_humidity;BME280_pressure;Samples;Min_cycle;Max_cycle;Signal;HPM_P1;HPM_P2
2022/07/18 00:00:59;;;;;;;7.10;2.40;;;15.80;74.90;;;;;;5045164;28;20501;-48
2022/07/18 00:03:26;;;;;;;10.07;2.47;;;15.80;74.70;;;;;;5062741;28;20481;-48
2022/07/18 00:05:53;;;;;;;4.23;2.50;;;15.80;74.00;;;;;;5058339;28;21000;-49
2022/07/18 00:08:20;;;;;;;6.30;3.23;;;15.80;75.20;;;;;;5061537;28;20811;-48
2022/07/18 00:10:47;;;;;;;3.53;2.70;;;15.80;75.70;;;;;;5047946;28;20525;-49
2022/07/18 00:13:14;;;;;;;2.97;1.90;;;15.80;74.90;;;;;;5062382;28;20971;-49
2022/07/18 00:15:42;;;;;;;5.30;2.20;;;15.80;75.20;;;;;;5051590;28;21191;-48
2022/07/18 00:18:08;;;;;;;4.80;2.13;;;15.90;74.20;;;;;;5046964;28;20486;-48
2022/07/18 00:20:35;;;;;;;9.33;2.03;;;15.80;74.60;;;;;;5041778;28;20478;-48
2022/07/18 00:23:02;;;;;;;4.10;2.13;;;15.70;74.40;;;;;;5056986;28;20478;-48
2022/07/18 00:25:29;;;;;;;3.07;2.53;;;15.70;75.10;;;;;;5058434;28;20487;-49
2022/07/18 00:27:55;;;;;;;5.40;2.50;;;15.70;74.80;;;;;;5052415;28;20491;-48
2022/07/18 00:30:22;;;;;;;4.23;2.20;;;15.50;75.50;;;;;;5051323;28;20471;-51
2022/07/18 00:32:50;;;;;;;5.20;2.37;;;15.30;76.30;;;;;;5052736;28;20486;-49
2022/07/18 00:35:17;;;;;;;2.90;1.97;;;15.30;75.30;;;;;;5048654;28;20561;-48
2022/07/18 00:37:44;;;;;;;3.37;2.23;;;15.30;74.90;;;;;;5055345;28;20482;-51
2022/07/18 00:40:11;;;;;;;3.20;2.13;;;15.30;76.00;;;;;;5057659;28;20478;-48
2022/07/18 00:42:38;;;;;;;4.10;2.33;;;15.20;76.80;;;;;;5055703;28;21180;-48
2022/07/18 00:45:05;;;;;;;7.43;2.07;;;15.10;77.60;;;;;;5058121;28;20490;-48
2022/07/18 00:47:32;;;;;;;2.97;2.10;;;15.00;76.70;;;;;;5055978;28;20479;-49
2022/07/18 00:50:03;;;;;;;2.70;2.00;;;15.00;76.20;;;;;;5054734;28;20487;-48
2022/07/18 00:52:30;;;;;;;3.40;2.07;;;15.00;76.10;;;;;;5045749;28;20487;-49
2022/07/18 00:54:56;;;;;;;4.43;3.13;;;15.00;76.50;;;;;;5062877;28;20478;-48
2022/07/18 00:57:23;;;;;;;2.50;2.20;;;15.00;76.10;;;;;;5055822;28;20474;-53
2022/07/18 01:02:34;;;;;;;3.17;2.10;;;15.10;76.30;;;;;;5058201;28;20607;-48
2022/07/18 01:05:02;;;;;;;4.10;2.23;;;15.00;76.30;;;;;;5055607;28;20486;-48
2022/07/18 01:07:29;;;;;;;6.03;2.80;;;15.00;76.00;;;;;;5058872;28;20483;-49
2022/07/18 01:09:56;;;;;;;3.40;2.40;;;15.00;75.80;;;;;;5055875;28;20746;-48
2022/07/18 01:12:23;;;;;;;3.70;2.20;;;14.90;76.20;;;;;;5054207;28;20483;-48
2022/07/18 01:14:50;;;;;;;6.23;2.50;;;14.90;76.40;;;;;;5056902;28;20475;-49
2022/07/18 01:17:19;;;;;;;3.90;2.30;;;14.90;76.50;;;;;;5047643;28;20492;-49
2022/07/18 01:19:47;;;;;;;4.83;2.97;;;14.90;76.90;;;;;;5057048;28;22835;-49
2022/07/18 01:22:18;;;;;;;6.00;2.40;;;14.80;76.30;;;;;;5056540;28;20478;-52
2022/07/18 01:24:46;;;;;;;7.03;2.70;;;14.80;76.20;;;;;;5053722;28;20487;-49
2022/07/18 01:27:15;;;;;;;2.50;2.10;;;14.80;76.40;;;;;;5053326;28;20487;-48
2022/07/18 01:29:42;;;;;;;4.83;2.63;;;14.70;76.80;;;;;;5052826;28;20491;-48
2022/07/18 01:32:10;;;;;;;6.27;2.47;;;14.70;76.80;;;;;;5054741;28;20490;-48
2022/07/18 01:34:37;;;;;;;2.63;1.80;;;14.70;76.80;;;;;;5057422;28;20491;-49
2022/07/18 01:37:05;;;;;;;3.43;2.40;;;14.70;77.40;;;;;;5053504;28;20478;-49
2022/07/18 01:39:33;;;;;;;2.60;2.07;;;14.60;77.10;;;;;;5057576;28;20471;-49
2022/07/18 01:42:01;;;;;;;4.90;2.50;;;14.70;78.00;;;;;;5062162;28;20470;-48
2022/07/18 01:44:30;;;;;;;3.80;2.60;;;14.40;77.70;;;;;;5036309;28;20964;-49
2022/07/18 01:46:57;;;;;;;3.77;2.70;;;14.40;77.20;;;;;;5060227;28;20481;-48
2022/07/18 01:49:25;;;;;;;5.87;2.63;;;14.40;77.40;;;;;;5050486;28;20487;-48
2022/07/18 01:51:53;;;;;;;3.53;3.20;;;14.40;78.10;;;;;;5053377;28;20490;-49
2022/07/18 01:54:21;;;;;;;2.50;2.03;;;14.40;77.90;;;;;;5049196;28;20483;-48
2022/07/18 01:56:49;;;;;;;3.30;2.13;;;14.40;77.90;;;;;;5053822;28;20498;-49
2022/07/18 01:59:16;;;;;;;2.33;2.13;;;14.40;77.70;;;;;;5051180;28;20787;-48
2022/07/18 02:01:44;;;;;;;4.77;3.53;;;14.30;77.60;;;;;;5038787;28;20478;-48
2022/07/18 02:04:11;;;;;;;3.13;2.40;;;14.30;78.00;;;;;;5057389;28;21336;-49
2022/07/18 02:06:38;;;;;;;7.93;3.13;;;14.20;77.70;;;;;;5059335;28;20812;-48
2022/07/18 02:09:06;;;;;;;3.83;2.63;;;14.20;77.70;;;;;;5038262;28;20478;-48
2022/07/18 02:11:33;;;;;;;2.27;2.00;;;14.20;78.40;;;;;;5064809;28;20563;-48
2022/07/18 02:14:02;;;;;;;4.10;2.37;;;14.20;78.10;;;;;;5049303;28;21082;-48
2022/07/18 02:16:29;;;;;;;5.70;2.23;;;14.20;78.20;;;;;;5011348;28;20494;-48
2022/07/18 02:18:55;;;;;;;6.73;2.30;;;14.20;78.50;;;;;;5052677;28;20490;-48
2022/07/18 02:21:22;;;;;;;5.00;3.00;;;14.10;78.60;;;;;;5053507;28;20489;-48
2022/07/18 02:23:50;;;;;;;8.97;4.30;;;14.10;78.00;;;;;;5054018;28;20491;-49
2022/07/18 02:26:18;;;;;;;2.70;2.30;;;14.10;78.30;;;;;;5050960;28;20479;-49
2022/07/18 02:28:45;;;;;;;3.40;3.10;;;14.00;78.20;;;;;;5051614;28;20517;-48
2022/07/18 02:31:13;;;;;;;4.50;3.23;;;14.00;78.70;;;;;;5040373;28;20486;-48
2022/07/18 02:33:39;;;;;;;3.33;2.43;;;14.00;78.20;;;;;;5046375;28;20486;-49
2022/07/18 02:36:06;;;;;;;6.53;3.17;;;14.00;78.90;;;;;;5049324;28;20483;-48
2022/07/18 02:38:33;;;;;;;7.10;2.80;;;13.90;79.20;;;;;;5054043;28;20487;-49
2022/07/18 02:41:00;;;;;;;4.40;3.50;;;13.80;78.70;;;;;;5060370;28;20471;-52
2022/07/18 02:43:27;;;;;;;2.97;2.23;;;13.80;78.90;;;;;;5047246;28;20511;-48
2022/07/18 02:45:54;;;;;;;22.43;5.90;;;;;;;;;;5041245;28;20860;-49
2022/07/18 02:48:22;;;;;;;7.10;3.37;;;13.80;78.40;;;;;;5049934;28;20492;-49
2022/07/18 02:50:49;;;;;;;5.23;4.70;;;13.90;79.00;;;;;;5046131;28;20474;-48
2022/07/18 02:53:15;;;;;;;3.73;3.30;;;13.80;78.60;;;;;;5056060;28;20483;-48
2022/07/18 02:55:42;;;;;;;5.63;3.80;;;13.80;78.50;;;;;;5049319;28;20502;-48
2022/07/18 02:58:09;;;;;;;5.30;4.17;;;13.80;78.50;;;;;;5058209;28;20950;-49
2022/07/18 03:00:35;;;;;;;3.30;3.00;;;13.90;78.50;;;;;;5023508;28;20486;-48
2022/07/18 03:03:02;;;;;;;5.23;2.80;;;13.80;78.60;;;;;;5060886;28;20513;-48
2022/07/18 03:05:31;;;;;;;5.17;3.70;;;13.60;79.60;;;;;;5023953;28;20524;-49
2022/07/18 03:07:57;;;;;;;5.40;4.83;;;13.60;79.90;;;;;;5045888;28;21115;-48
2022/07/18 03:10:24;;;;;;;5.93;2.90;;;13.60;78.80;;;;;;5056426;28;20478;-48
2022/07/18 03:12:51;;;;;;;8.13;6.10;;;13.60;79.10;;;;;;5019928;28;20486;-48
2022/07/18 03:15:18;;;;;;;3.70;3.27;;;13.60;78.60;;;;;;5025431;28;20866;-48
2022/07/18 03:17:44;;;;;;;3.07;2.70;;;13.60;78.40;;;;;;5022037;28;20489;-48
2022/07/18 03:20:12;;;;;;;3.77;3.47;;;13.60;79.30;;;;;;5015704;28;20481;-48
2022/07/18 03:22:40;;;;;;;3.13;2.50;;;13.60;79.60;;;;;;5004484;28;20503;-48
2022/07/18 03:25:07;;;;;;;6.80;3.10;;;13.50;81.10;;;;;;4998705;28;21013;-48
2022/07/18 03:27:34;;;;;;;3.53;2.93;;;13.40;80.20;;;;;;5017186;28;20491;-48
2022/07/18 03:30:01;;;;;;;5.10;3.73;;;13.40;80.30;;;;;;4990207;28;20506;-49
2022/07/18 03:32:27;;;;;;;3.60;2.90;;;13.40;80.90;;;;;;5008669;28;20491;-49
2022/07/18 03:34:54;;;;;;;5.70;4.67;;;13.40;80.30;;;;;;5042130;28;20474;-49
2022/07/18 03:37:21;;;;;;;4.60;3.47;;;13.40;80.00;;;;;;4987567;28;20556;-48
2022/07/18 03:39:49;;;;;;;5.87;4.00;;;13.30;80.10;;;;;;5038229;28;20488;-48
2022/07/18 03:42:16;;;;;;;4.47;4.07;;;13.30;80.50;;;;;;5019915;28;20483;-48
2022/07/18 03:44:42;;;;;;;6.03;3.17;;;13.10;81.30;;;;;;4969715;28;20729;-48
2022/07/18 03:47:09;;;;;;;3.70;3.10;;;13.10;80.60;;;;;;5039721;28;20498;-48
2022/07/18 03:49:36;;;;;;;3.03;2.80;;;13.20;80.80;;;;;;5009954;28;20843;-48
2022/07/18 03:52:03;;;;;;;3.60;3.30;;;13.20;80.90;;;;;;5021437;28;20960;-48
2022/07/18 03:54:29;;;;;;;3.40;3.10;;;13.10;81.20;;;;;;4975876;28;20491;-48
2022/07/18 03:56:57;;;;;;;4.80;4.40;;;13.10;81.10;;;;;;5014095;28;21048;-48
2022/07/18 03:59:24;;;;;;;5.17;3.90;;;13.10;81.70;;;;;;5019675;28;20487;-49
2022/07/18 04:01:51;;;;;;;6.23;5.63;;;13.20;82.10;;;;;;4978743;28;20487;-48
2022/07/18 04:04:17;;;;;;;4.77;3.80;;;13.20;81.90;;;;;;5009940;28;20499;-50
2022/07/18 04:06:44;;;;;;;3.60;3.30;;;13.20;82.50;;;;;;5003438;28;20495;-52
2022/07/18 04:09:11;;;;;;;9.83;3.60;;;13.30;81.50;;;;;;5029878;28;20491;-48
2022/07/18 04:11:38;;;;;;;3.67;2.97;;;13.30;82.00;;;;;;4998258;28;20471;-48
2022/07/18 04:14:06;;;;;;;3.50;2.93;;;13.30;81.10;;;;;;5045495;28;20475;-47
2022/07/18 04:16:32;;;;;;;3.80;2.80;;;13.30;81.50;;;;;;5015833;28;20511;-48
2022/07/18 04:18:59;;;;;;;5.70;3.77;;;13.20;81.50;;;;;;5005775;28;20490;-48
2022/07/18 04:21:26;;;;;;;5.00;3.77;;;13.20;81.90;;;;;;5026703;28;20497;-49
2022/07/18 04:23:53;;;;;;;4.67;4.27;;;13.10;81.80;;;;;;5029852;28;20501;-48
2022/07/18 04:26:19;;;;;;;3.70;2.93;;;13.10;82.10;;;;;;5020323;28;20947;-47
2022/07/18 04:28:46;;;;;;;6.37;3.60;;;13.10;81.20;;;;;;5021514;28;20492;-47
2022/07/18 04:31:14;;;;;;;3.63;2.43;;;13.10;81.50;;;;;;5020169;28;21006;-47
2022/07/18 04:33:41;;;;;;;3.23;2.93;;;13.20;81.30;;;;;;5004570;28;20518;-47
2022/07/18 04:36:08;;;;;;;4.00;3.23;;;13.30;81.70;;;;;;5019472;28;21072;-47
2022/07/18 04:38:37;;;;;;;8.53;3.80;;;13.30;82.10;;;;;;5009958;28;20952;-47
2022/07/18 04:41:04;;;;;;;5.60;3.90;;;13.40;81.90;;;;;;5014185;28;20482;-47
2022/07/18 04:43:30;;;;;;;4.90;4.40;;;13.40;82.90;;;;;;5036567;28;20491;-47
2022/07/18 04:45:57;;;;;;;6.33;4.10;;;13.60;82.70;;;;;;5057084;28;20498;-47
2022/07/18 04:48:25;;;;;;;4.10;3.47;;;13.60;82.10;;;;;;5050271;28;21469;-47
2022/07/18 04:50:52;;;;;;;6.07;3.70;;;13.60;82.30;;;;;;5051626;28;20474;-48
2022/07/18 04:53:19;;;;;;;5.57;3.83;;;13.60;82.60;;;;;;5058778;28;20481;-47
2022/07/18 04:55:46;;;;;;;3.73;3.43;;;13.60;82.60;;;;;;5053573;28;21068;-48
2022/07/18 04:58:12;;;;;;;5.97;5.10;;;13.50;83.80;;;;;;5041592;28;20482;-48
2022/07/18 05:00:39;;;;;;;5.17;3.33;;;13.50;83.80;;;;;;5051375;28;20533;-48
2022/07/18 05:03:06;;;;;;;3.70;3.40;;;13.60;83.80;;;;;;5059422;28;20474;-48
2022/07/18 05:05:34;;;;;;;6.93;3.97;;;13.60;84.30;;;;;;5054588;28;20491;-53
2022/07/18 05:08:01;;;;;;;4.57;4.13;;;13.60;84.50;;;;;;5057071;28;20475;-48
2022/07/18 05:10:27;;;;;;;3.43;3.23;;;13.60;84.80;;;;;;5047379;28;20482;-48
2022/07/18 05:12:55;;;;;;;4.60;4.20;;;13.70;84.40;;;;;;5059481;28;20478;-48
2022/07/18 05:15:24;;;;;;;4.67;3.47;;;13.80;85.30;;;;;;5057232;28;20482;-48
2022/07/18 05:17:51;;;;;;;5.07;4.30;;;13.80;85.00;;;;;;5050707;28;20490;-48
2022/07/18 05:20:20;;;;;;;4.77;3.80;;;14.10;84.30;;;;;;5058236;28;20484;-49
2022/07/18 05:22:48;;;;;;;6.83;4.20;;;14.30;84.70;;;;;;5059718;28;20510;-48
2022/07/18 05:25:15;;;;;;;3.87;3.20;;;14.40;84.30;;;;;;5057887;28;20467;-48
2022/07/18 05:27:42;;;;;;;9.67;4.00;;;14.70;84.20;;;;;;5033136;28;21209;-48
2022/07/18 05:30:11;;;;;;;4.70;4.23;;;14.70;84.30;;;;;;5026070;28;20486;-48
2022/07/18 05:32:39;;;;;;;4.47;3.80;;;14.90;84.50;;;;;;5030950;28;21007;-48
2022/07/18 05:35:07;;;;;;;5.90;4.07;;;15.10;84.90;;;;;;5052411;28;20478;-48
2022/07/18 05:37:35;;;;;;;6.30;4.77;;;15.40;85.00;;;;;;5037797;28;21114;-48
2022/07/18 05:40:04;;;;;;;10.43;4.50;;;15.50;84.10;;;;;;5040645;28;20500;-48
2022/07/18 05:42:31;;;;;;;4.93;3.77;;;15.70;83.60;;;;;;5053159;28;20901;-48
2022/07/18 05:44:58;;;;;;;4.50;4.13;;;16.00;82.80;;;;;;5047927;28;20481;-48
2022/07/18 05:47:24;;;;;;;9.13;4.00;;;16.10;83.30;;;;;;5052160;28;20976;-48
2022/07/18 05:49:51;;;;;;;6.30;3.83;;;16.30;81.90;;;;;;5049550;28;20486;-49
2022/07/18 05:52:18;;;;;;;4.90;3.13;;;16.40;82.70;;;;;;5034867;28;20884;-48
2022/07/18 05:54:45;;;;;;;5.07;3.40;;;16.60;81.60;;;;;;5051012;28;20482;-48
2022/07/18 05:57:13;;;;;;;4.90;4.20;;;16.70;80.70;;;;;;5033008;28;20910;-48
2022/07/18 05:59:39;;;;;;;5.50;4.17;;;16.80;81.70;;;;;;5015660;28;20506;-48
2022/07/18 06:02:06;;;;;;;4.00;3.50;;;17.10;79.60;;;;;;5045113;28;20475;-48
2022/07/18 06:04:33;;;;;;;3.23;2.93;;;17.20;80.60;;;;;;5021117;28;20494;-48
2022/07/18 06:07:00;;;;;;;5.13;3.43;;;17.40;78.40;;;;;;4979688;28;20495;-48
2022/07/18 06:09:30;;;;;;;5.03;3.43;;;17.50;78.80;;;;;;4989017;28;20554;-48
2022/07/18 06:11:59;;;;;;;3.23;2.93;;;17.70;78.10;;;;;;5023828;28;20479;-48
2022/07/18 06:14:27;;;;;;;3.77;3.30;;;17.80;78.90;;;;;;4995272;28;20580;-48
2022/07/18 06:16:54;;;;;;;7.20;4.33;;;18.20;76.10;;;;;;4998387;28;21022;-49
2022/07/18 06:19:21;;;;;;;3.10;2.27;;;18.30;77.20;;;;;;5020456;28;20482;-48
2022/07/18 06:21:49;;;;;;;4.90;3.53;;;18.50;75.70;;;;;;4999665;28;20513;-49
2022/07/18 06:24:15;;;;;;;3.40;2.70;;;18.80;75.20;;;;;;5008034;28;20557;-49
2022/07/18 06:26:42;;;;;;;3.70;2.30;;;19.30;74.80;;;;;;4994587;28;21235;-50
2022/07/18 06:29:10;;;;;;;4.20;3.10;;;19.30;75.20;;;;;;4993258;28;20488;-48
2022/07/18 06:31:38;;;;;;;7.40;2.90;;;;;;;;;;5035082;28;20475;-49
2022/07/18 06:34:05;;;;;;;2.70;1.90;;;19.80;71.70;;;;;;5062739;28;20899;-49
2022/07/18 06:36:32;;;;;;;4.03;2.97;;;20.10;71.60;;;;;;5058339;28;20991;-49
2022/07/18 06:38:59;;;;;;;7.30;3.17;;;20.30;72.40;;;;;;5056511;28;21094;-49
2022/07/18 06:41:26;;;;;;;5.97;2.47;;;20.90;70.80;;;;;;5059292;28;20487;-53
2022/07/18 06:43:52;;;;;;;3.23;2.63;;;21.00;70.70;;;;;;5053317;28;20481;-51
2022/07/18 06:46:20;;;;;;;2.63;2.30;;;21.30;70.00;;;;;;5052930;28;20475;-49
2022/07/18 06:48:48;;;;;;;2.53;1.70;;;21.50;69.20;;;;;;5046258;28;20590;-49
2022/07/18 06:51:14;;;;;;;3.47;2.17;;;21.70;69.00;;;;;;5058553;28;20979;-49
2022/07/18 06:53:41;;;;;;;2.60;2.40;;;21.90;69.50;;;;;;5053008;28;20992;-49
2022/07/18 06:56:08;;;;;;;11.23;3.00;;;22.20;67.90;;;;;;5056886;28;21046;-49
2022/07/18 06:58:35;;;;;;;2.63;1.80;;;22.40;66.50;;;;;;5055044;28;20843;-49
2022/07/18 07:01:02;;;;;;;3.40;2.50;;;22.60;67.60;;;;;;5046903;28;20566;-49
2022/07/18 07:03:28;;;;;;;5.03;2.30;;;23.00;65.30;;;;;;5052063;28;20485;-49
2022/07/18 07:05:56;;;;;;;4.40;2.13;;;23.20;65.30;;;;;;5055213;28;20482;-50
2022/07/18 07:08:23;;;;;;;4.50;2.37;;;;;;;;;;5046264;28;20493;-49
2022/07/18 07:10:50;;;;;;;5.40;1.90;;;23.60;63.90;;;;;;5029007;28;20487;-49
2022/07/18 07:13:17;;;;;;;3.13;2.43;;;23.90;64.50;;;;;;5047835;28;20497;-49
2022/07/18 07:15:43;;;;;;;7.03;2.33;;;24.10;63.40;;;;;;5045793;28;21468;-50
2022/07/18 07:18:11;;;;;;;3.83;2.33;;;24.40;62.70;;;;;;5048285;28;20483;-50
2022/07/18 07:20:37;;;;;;;4.37;2.30;;;24.70;62.30;;;;;;5058100;28;20569;-49
2022/07/18 07:23:07;;;;;;;5.30;2.07;;;24.90;61.80;;;;;;5065169;28;20478;-50
2022/07/18 07:25:35;;;;;;;7.23;2.60;;;25.30;59.80;;;;;;5055420;28;20611;-49
2022/07/18 07:28:02;;;;;;;4.90;3.40;;;25.40;60.00;;;;;;5062652;28;20461;-49
2022/07/18 07:30:29;;;;;;;3.23;2.20;;;25.70;60.20;;;;;;5060473;28;21022;-50
2022/07/18 07:32:56;;;;;;;3.90;2.07;;;25.90;58.80;;;;;;5060223;28;20485;-50
2022/07/18 07:35:23;;;;;;;4.33;2.13;;;26.10;58.10;;;;;;5066252;28;21150;-50
2022/07/18 07:37:52;;;;;;;3.20;1.90;;;26.50;58.00;;;;;;5057945;28;20852;-50
2022/07/18 07:40:21;;;;;;;2.27;1.40;;;26.60;58.90;;;;;;5060299;28;20949;-49
2022/07/18 07:42:48;;;;;;;3.30;2.40;;;26.80;57.50;;;;;;5057124;28;20479;-49
2022/07/18 07:45:15;;;;;;;2.80;2.20;;;27.10;57.40;;;;;;5062162;28;20926;-50
2022/07/18 07:47:42;;;;;;;2.70;2.30;;;27.30;56.70;;;;;;5052448;28;20978;-49
2022/07/18 07:50:10;;;;;;;5.53;2.63;;;27.50;54.80;;;;;;5061881;28;20481;-50
2022/07/18 07:52:37;;;;;;;2.70;2.07;;;27.80;55.60;;;;;;5053073;28;20517;-50
2022/07/18 07:55:05;;;;;;;4.30;2.57;;;27.80;56.40;;;;;;5065271;28;21018;-50
2022/07/18 07:57:35;;;;;;;6.60;4.63;;;28.00;55.60;;;;;;5060437;28;20489;-50
2022/07/18 08:00:04;;;;;;;3.37;2.30;;;28.30;54.60;;;;;;5045932;28;20616;-50
2022/07/18 08:02:31;;;;;;;4.33;2.03;;;28.60;53.20;;;;;;5058234;28;20471;-50
2022/07/18 08:04:57;;;;;;;2.40;1.70;;;28.60;53.90;;;;;;5057657;28;20482;-53
2022/07/18 08:07:24;;;;;;;4.57;2.20;;;28.90;53.90;;;;;;5059689;28;20477;-49
2022/07/18 08:09:51;;;;;;;4.53;2.50;;;29.00;53.50;;;;;;5060694;28;21145;-50
2022/07/18 08:12:17;;;;;;;2.30;1.60;;;29.20;52.30;;;;;;5063481;28;20489;-50
2022/07/18 08:14:45;;;;;;;4.13;1.87;;;29.50;51.70;;;;;;5054535;28;20482;-51
2022/07/18 08:17:12;;;;;;;4.53;1.67;;;29.60;51.40;;;;;;5054452;28;20561;-50
2022/07/18 08:19:39;;;;;;;3.90;2.30;;;29.60;52.10;;;;;;5060561;28;20976;-50
2022/07/18 08:22:06;;;;;;;4.77;1.70;;;29.90;53.30;;;;;;5054283;28;21036;-50
2022/07/18 08:24:32;;;;;;;2.23;1.63;;;30.10;52.70;;;;;;5063253;28;20474;-50
2022/07/18 08:26:59;;;;;;;2.40;1.80;;;30.40;52.20;;;;;;5050733;28;20961;-51
2022/07/18 08:29:26;;;;;;;4.63;2.23;;;30.70;50.70;;;;;;5052423;28;20471;-52
2022/07/18 08:31:54;;;;;;;2.70;1.50;;;30.70;49.20;;;;;;5060241;28;20769;-50
2022/07/18 08:34:20;;;;;;;4.10;1.90;;;30.70;50.00;;;;;;5060100;28;20478;-50
2022/07/18 08:36:47;;;;;;;4.50;1.50;;;30.80;51.10;;;;;;5057034;28;20482;-51
2022/07/18 08:39:14;;;;;;;1.90;1.40;;;31.00;49.80;;;;;;5061455;28;20478;-51
2022/07/18 08:41:44;;;;;;;2.83;1.97;;;31.10;49.00;;;;;;5054481;28;21030;-51
2022/07/18 08:44:13;;;;;;;4.20;2.00;;;31.30;49.40;;;;;;5063147;28;21094;-51
2022/07/18 08:46:40;;;;;;;13.33;2.33;;;31.20;47.90;;;;;;5050751;28;20477;-51
2022/07/18 08:49:09;;;;;;;2.40;1.50;;;31.20;48.00;;;;;;5054256;28;20829;-51
2022/07/18 08:51:37;;;;;;;3.73;1.53;;;31.40;48.70;;;;;;5060891;28;20714;-51
2022/07/18 08:54:04;;;;;;;5.00;1.47;;;31.50;49.40;;;;;;5030860;28;20498;-52
2022/07/18 08:56:31;;;;;;;2.90;1.50;;;31.60;49.60;;;;;;5041886;28;20577;-51
2022/07/18 08:58:57;;;;;;;3.33;1.30;;;31.90;49.20;;;;;;5034048;28;20466;-51
2022/07/18 09:01:25;;;;;;;4.00;1.87;;;32.10;47.50;;;;;;5053143;28;20965;-51
2022/07/18 09:06:44;;;;;;;2.63;1.60;;;32.50;48.00;;;;;;5057041;28;20474;-51
2022/07/18 09:09:12;;;;;;;3.60;1.80;;;32.30;47.60;;;;;;5065860;28;20499;-51
2022/07/18 09:11:50;;;;;;;3.43;1.83;;;32.50;47.70;;;;;;5063548;28;20518;-51
2022/07/18 09:14:35;;;;;;;3.23;1.23;;;32.70;47.90;;;;;;5048747;28;20582;-52
2022/07/18 09:17:09;;;;;;;2.10;1.60;;;32.80;48.60;;;;;;5053413;28;20477;-51
2022/07/18 09:19:36;;;;;;;3.10;2.00;;;33.20;45.60;;;;;;5050762;28;20846;-52
2022/07/18 09:22:15;;;;;;;2.80;1.87;;;33.10;45.90;;;;;;5062706;28;20692;-51
2022/07/18 09:25:01;;;;;;;2.30;1.47;;;33.00;42.70;;;;;;5042978;28;20478;-51
2022/07/18 09:27:34;;;;;;;2.77;1.50;;;33.20;45.20;;;;;;5058823;28;20569;-51
2022/07/18 09:30:22;;;;;;;3.60;2.03;;;33.10;44.60;;;;;;5058652;28;20937;-51
2022/07/18 09:32:52;;;;;;;2.20;1.40;;;33.20;46.60;;;;;;5059471;28;20478;-51
2022/07/18 09:35:21;;;;;;;2.73;1.50;;;33.50;43.20;;;;;;5057210;28;20564;-52
2022/07/18 09:37:58;;;;;;;2.90;1.60;;;33.60;45.70;;;;;;5053549;28;20661;-51
2022/07/18 09:40:26;;;;;;;2.80;1.77;;;34.00;45.90;;;;;;5063685;28;20477;-52
2022/07/18 09:42:54;;;;;;;2.43;1.50;;;34.20;43.70;;;;;;5056228;28;20474;-52
2022/07/18 09:45:26;;;;;;;2.83;1.50;;;34.20;42.30;;;;;;5060623;28;20477;-51
2022/07/18 09:47:55;;;;;;;2.20;1.73;;;34.30;41.40;;;;;;5058264;28;21017;-52
2022/07/18 09:50:25;;;;;;;1.87;1.23;;;33.90;40.80;;;;;;5063730;28;20481;-51
2022/07/18 09:53:10;;;;;;;2.33;1.37;;;33.80;42.40;;;;;;5061671;28;20498;-51
2022/07/18 09:55:43;;;;;;;2.50;1.80;;;33.90;41.70;;;;;;5035769;28;20474;-51
2022/07/18 09:58:10;;;;;;;2.47;1.73;;;34.10;43.40;;;;;;5057420;28;20478;-52
2022/07/18 10:00:39;;;;;;;1.83;1.40;;;34.40;42.10;;;;;;5060516;28;20454;-51
2022/07/18 10:03:08;;;;;;;3.37;1.87;;;34.40;42.70;;;;;;5050693;28;20463;-53
2022/07/18 10:05:36;;;;;;;4.17;1.53;;;34.60;42.70;;;;;;5053732;28;20659;-51
2022/07/18 10:08:06;;;;;;;2.53;1.77;;;34.60;42.80;;;;;;5056596;28;20471;-50
2022/07/18 10:10:33;;;;;;;2.10;1.40;;;34.30;41.20;;;;;;5060858;28;20520;-51
2022/07/18 10:13:01;;;;;;;2.10;1.10;;;34.40;42.50;;;;;;5063187;28;20449;-52
2022/07/18 10:15:29;;;;;;;3.30;1.47;;;34.10;42.10;;;;;;5060436;28;20644;-52
2022/07/18 10:17:57;;;;;;;3.07;1.63;;;34.10;42.70;;;;;;5054599;28;20486;-52
2022/07/18 10:20:30;;;;;;;3.07;1.50;;;34.40;43.20;;;;;;5060729;28;20826;-51
2022/07/18 10:23:01;;;;;;;2.83;1.77;;;34.30;38.90;;;;;;5052552;28;20490;-50
2022/07/18 10:25:29;;;;;;;2.30;1.30;;;34.00;40.40;;;;;;5062009;28;20452;-51
2022/07/18 10:28:05;;;;;;;3.80;1.73;;;33.90;39.40;;;;;;5053994;28;20486;-51
2022/07/18 10:30:37;;;;;;;1.90;1.50;;;33.60;39.50;;;;;;5059246;28;20486;-50
2022/07/18 10:33:25;;;;;;;14.20;2.20;;;33.40;40.10;;;;;;5026566;28;20487;-51
2022/07/18 10:36:01;;;;;;;2.67;1.67;;;33.50;41.00;;;;;;5042361;28;20442;-50
2022/07/18 10:38:28;;;;;;;2.27;1.50;;;33.20;40.10;;;;;;5046064;28;20491;-52
2022/07/18 10:41:13;;;;;;;3.23;1.70;;;33.20;40.30;;;;;;5062961;28;20481;-52
2022/07/18 10:43:45;;;;;;;4.40;1.70;;;33.80;43.80;;;;;;5054190;28;20975;-53
2022/07/18 10:46:13;;;;;;;2.10;1.30;;;34.10;41.30;;;;;;5047597;28;20886;-52
2022/07/18 10:48:57;;;;;;;1.90;1.20;;;34.20;40.30;;;;;;5064673;28;20489;-52
2022/07/18 10:51:32;;;;;;;2.00;1.40;;;34.20;39.20;;;;;;5052346;28;20882;-52
2022/07/18 10:54:15;;;;;;;2.53;1.60;;;34.00;36.90;;;;;;5055311;28;20478;-51
2022/07/18 10:57:11;;;;;;;2.90;1.43;;;34.00;39.00;;;;;;5050719;28;20482;-52
2022/07/18 11:00:02;;;;;;;2.70;1.50;;;33.90;37.50;;;;;;5060516;28;20445;-50
2022/07/18 11:02:34;;;;;;;2.47;1.50;;;33.90;39.00;;;;;;5064983;28;20983;-51
2022/07/18 11:05:01;;;;;;;2.07;1.27;;;34.00;39.70;;;;;;5057985;28;20956;-52
2022/07/18 11:07:29;;;;;;;3.00;1.67;;;33.90;38.80;;;;;;5057918;28;20963;-52
2022/07/18 11:09:55;;;;;;;2.40;1.40;;;33.60;38.00;;;;;;5053512;28;20456;-52
2022/07/18 11:12:29;;;;;;;2.30;1.50;;;33.70;38.60;;;;;;5063884;28;20929;-51
2022/07/18 11:15:06;;;;;;;2.10;1.43;;;33.80;40.10;;;;;;5063429;28;20485;-52
2022/07/18 11:18:04;;;;;;;2.87;1.67;;;34.00;40.40;;;;;;5053953;28;20900;-52
2022/07/18 11:20:39;;;;;;;2.97;1.43;;;34.70;38.90;;;;;;5042666;28;21016;-51
2022/07/18 11:23:17;;;;;;;2.97;1.03;;;34.50;37.80;;;;;;5051896;28;20935;-50
2022/07/18 11:25:44;;;;;;;1.90;1.40;;;34.50;39.40;;;;;;5039621;28;21329;-51
2022/07/18 11:28:13;;;;;;;2.10;1.40;;;34.40;40.30;;;;;;5065091;28;20474;-52
2022/07/18 11:30:41;;;;;;;3.47;1.43;;;35.00;40.90;;;;;;5054415;28;20452;-52
2022/07/18 11:33:21;;;;;;;2.10;1.27;;;35.00;39.00;;;;;;5057501;28;20943;-52
2022/07/18 11:35:49;;;;;;;4.73;1.60;;;35.40;38.00;;;;;;5056651;28;20601;-52
2022/07/18 11:38:16;;;;;;;1.87;1.17;;;35.20;38.20;;;;;;5064141;28;20452;-52
2022/07/18 11:40:48;;;;;;;2.30;1.47;;;34.70;37.00;;;;;;5060907;28;21584;-52
2022/07/18 11:43:22;;;;;;;2.77;2.07;;;34.80;38.30;;;;;;5063530;28;20468;-53
2022/07/18 11:45:49;;;;;;;3.50;1.60;;;34.80;38.20;;;;;;5042357;28;20471;-52
2022/07/18 11:48:22;;;;;;;1.90;1.20;;;34.80;40.30;;;;;;5049523;28;20442;-50
2022/07/18 11:50:49;;;;;;;2.50;1.40;;;34.70;37.00;;;;;;5058808;28;20523;-51
2022/07/18 11:53:36;;;;;;;3.20;1.53;;;35.00;40.50;;;;;;5041702;27;20564;-51
2022/07/18 11:56:05;;;;;;;2.00;1.33;;;35.10;38.90;;;;;;5033009;28;20463;-51
2022/07/18 11:58:37;;;;;;;2.90;1.40;;;35.50;40.00;;;;;;5042448;28;20502;-51
2022/07/18 12:01:05;;;;;;;8.93;1.40;;;35.50;41.40;;;;;;5038068;28;20528;-51
2022/07/18 12:03:34;;;;;;;3.87;1.63;;;36.10;40.50;;;;;;5038362;28;20470;-51
2022/07/18 12:06:11;;;;;;;1.97;1.23;;;36.00;37.60;;;;;;5034556;28;20965;-51
2022/07/18 12:08:42;;;;;;;1.70;1.20;;;35.70;36.80;;;;;;5033856;28;20491;-51
2022/07/18 12:11:17;;;;;;;4.40;3.87;;;35.80;38.80;;;;;;5029169;28;20475;-51
2022/07/18 12:13:54;;;;;;;1.90;1.40;;;35.70;40.30;;;;;;5037441;28;20939;-51
2022/07/18 12:16:33;;;;;;;6.17;1.47;;;35.70;38.20;;;;;;5022495;28;20475;-51
2022/07/18 12:19:05;;;;;;;2.20;1.37;;;36.00;40.40;;;;;;5039925;28;20838;-51
2022/07/18 12:21:47;;;;;;;2.90;1.47;;;35.80;37.90;;;;;;5037859;28;20450;-51
2022/07/18 12:24:27;;;;;;;2.77;1.80;;;35.90;38.20;;;;;;5038339;28;20471;-51
2022/07/18 12:27:13;;;;;;;2.20;1.50;;;35.80;37.90;;;;;;5022029;28;20458;-51
2022/07/18 12:30:03;;;;;;;3.20;1.57;;;36.10;38.80;;;;;;5039238;28;21056;-51
2022/07/18 12:32:31;;;;;;;2.20;1.90;;;36.20;38.60;;;;;;5054624;27;20471;-50
2022/07/18 12:35:02;;;;;;;1.93;1.23;;;36.60;41.20;;;;;;5039587;28;20560;-51
2022/07/18 12:37:30;;;;;;;2.47;1.60;;;36.70;37.80;;;;;;5056190;28;20693;-50
2022/07/18 12:39:59;;;;;;;2.73;1.70;;;36.70;39.10;;;;;;5038402;28;20487;-51
2022/07/18 12:42:31;;;;;;;2.17;1.40;;;36.80;38.10;;;;;;5040664;28;20988;-50
2022/07/18 12:44:58;;;;;;;3.30;1.30;;;36.70;38.10;;;;;;5052552;28;20482;-50
2022/07/18 12:47:25;;;;;;;3.50;1.60;;;36.90;39.40;;;;;;5032993;28;20453;-51
2022/07/18 12:49:51;;;;;;;5.90;1.53;;;36.40;38.10;;;;;;5052682;28;20468;-50
2022/07/18 12:52:18;;;;;;;2.10;1.53;;;36.40;38.40;;;;;;5043168;28;20454;-51
2022/07/18 12:54:45;;;;;;;3.70;2.50;;;36.20;37.70;;;;;;5049875;28;20465;-51
2022/07/18 12:57:13;;;;;;;3.13;2.00;;;36.30;39.90;;;;;;5037179;28;20729;-51
2022/07/18 12:59:40;;;;;;;4.60;1.70;;;36.80;41.30;;;;;;5040459;28;20919;-51
2022/07/18 13:02:07;;;;;;;2.73;1.60;;;36.90;41.00;;;;;;5038764;28;21045;-51